Time,TemperatureF,DewpointF,PressureIn,WindDirection,WindDirectionDegrees,WindSpeedMPH,WindSpeedGustMPH,Humidity,HourlyPrecipIn,Conditions,Clouds,dailyrainin,SoftwareType,DateUTC
2013-05-29 00:01:00,68.0,44.7,30.06,WSW,257,0.0,0.0,43,0.00,,---,0.00,VWS V14.01,2013-05-29 04:01:00,
2013-05-29 00:02:00,67.8,45.1,30.06,WSW,257,0.0,0.0,44,0.00,,---,0.00,VWS V14.01,2013-05-29 04:02:00,
2013-05-29 00:07:00,67.3,44.7,30.06,East,92,0.0,0.0,44,0.00,,---,0.00,VWS V14.01,2013-05-29 04:07:00,
2013-05-29 00:12:00,67.1,45.1,30.06,SW,234,0.0,0.0,45,0.00,,---,0.00,VWS V14.01,2013-05-29 04:12:00,
2013-05-29 00:17:00,67.3,45.8,30.06,WSW,255,3.6,4.0,46,0.00,,---,0.00,VWS V14.01,2013-05-29 04:17:00,
2013-05-29 00:22:00,67.6,46.1,30.06,West,261,3.6,4.0,46,0.00,,---,0.00,VWS V14.01,2013-05-29 04:22:00,
2013-05-29 00:27:00,67.8,45.7,30.09,WNW,295,5.4,5.4,45,0.00,,---,0.00,VWS V14.01,2013-05-29 04:27:00,
2013-05-29 00:32:00,68.0,45.9,30.09,WNW,294,2.2,3.1,45,0.00,,---,0.00,VWS V14.01,2013-05-29 04:32:00,
2013-05-29 00:37:00,68.0,45.3,30.09,SSW,209,3.1,3.6,44,0.00,,---,0.00,VWS V14.01,2013-05-29 04:37:00,
2013-05-29 00:42:00,68.2,45.5,30.09,NNW,332,3.1,4.0,44,0.00,,---,0.00,VWS V14.01,2013-05-29 04:42:00,
2013-05-29 00:47:00,68.4,45.6,30.09,WSW,251,2.2,4.9,44,0.00,,---,0.00,VWS V14.01,2013-05-29 04:47:00,
2013-05-29 00:52:00,68.2,45.5,30.09,West,264,3.1,3.1,44,0.00,,---,0.00,VWS V14.01,2013-05-29 04:52:00,
2013-05-29 00:57:00,68.2,45.5,30.09,NNW,327,0.0,0.0,44,0.00,,---,0.00,VWS V14.01,2013-05-29 04:57:00,
2013-05-29 01:02:00,67.8,45.7,30.09,WSW,240,0.0,0.0,45,0.00,,---,0.00,VWS V14.01,2013-05-29 05:02:00,
2013-05-29 01:07:00,67.3,45.2,30.09,WSW,240,0.0,0.0,45,0.00,,---,0.00,VWS V14.01,2013-05-29 05:07:00,
2013-05-29 01:12:00,66.7,45.3,30.09,WSW,240,0.0,0.0,46,0.00,,---,0.00,VWS V14.01,2013-05-29 05:12:00,
2013-05-29 01:17:00,66.2,45.4,30.09,ESE,119,0.0,0.0,47,0.00,,---,0.00,VWS V14.01,2013-05-29 05:17:00,
2013-05-29 01:22:00,65.7,45.5,30.09,ESE,119,0.0,0.0,48,0.00,,---,0.00,VWS V14.01,2013-05-29 05:22:00,
2013-05-29 01:27:00,65.3,45.7,30.09,ESE,119,0.0,0.0,49,0.00,,---,0.00,VWS V14.01,2013-05-29 05:27:00,
2013-05-29 01:32:00,64.6,45.5,30.09,ESE,119,0.0,0.0,50,0.00,,---,0.00,VWS V14.01,2013-05-29 05:32:00,
2013-05-29 01:37:00,64.0,46.1,30.09,ESE,119,0.0,0.0,52,0.00,,---,0.00,VWS V14.01,2013-05-29 05:37:00,
2013-05-29 01:42:00,63.9,46.4,30.09,ESE,119,0.0,0.0,53,0.00,,---,0.00,VWS V14.01,2013-05-29 05:42:00,
2013-05-29 01:47:00,63.5,46.6,30.09,ESE,119,0.0,0.0,54,0.00,,---,0.00,VWS V14.01,2013-05-29 05:47:00,
2013-05-29 01:52:00,63.3,46.9,30.09,ESE,119,0.0,0.0,55,0.00,,---,0.00,VWS V14.01,2013-05-29 05:52:00,
2013-05-29 01:57:00,63.1,47.2,30.09,ESE,119,0.0,0.0,56,0.00,,---,0.00,VWS V14.01,2013-05-29 05:57:00,
2013-05-29 02:02:00,63.0,47.5,30.09,ESE,119,0.0,0.0,57,0.00,,---,0.00,VWS V14.01,2013-05-29 06:02:00,
2013-05-29 02:07:00,62.8,47.8,30.09,ESE,119,0.0,0.0,58,0.00,,---,0.00,VWS V14.01,2013-05-29 06:07:00,
2013-05-29 02:12:00,62.6,47.6,30.09,ESE,118,0.0,0.0,58,0.00,,---,0.00,VWS V14.01,2013-05-29 06:12:00,
2013-05-29 02:17:00,62.6,48.5,30.09,ESE,113,0.0,0.0,60,0.00,,---,0.00,VWS V14.01,2013-05-29 06:17:00,
2013-05-29 02:22:00,62.6,48.5,30.09,ESE,113,0.0,0.0,60,0.00,,---,0.00,VWS V14.01,2013-05-29 06:22:00,
2013-05-29 02:27:00,62.6,48.5,30.09,ESE,113,0.0,0.0,60,0.00,,---,0.00,VWS V14.01,2013-05-29 06:27:00,
2013-05-29 02:32:00,62.6,48.5,30.09,ESE,113,0.0,0.0,60,0.00,,---,0.00,VWS V14.01,2013-05-29 06:32:00,
2013-05-29 02:37:00,62.6,48.5,30.09,ESE,113,0.0,0.0,60,0.00,,---,0.00,VWS V14.01,2013-05-29 06:37:00,
2013-05-29 02:42:00,62.6,49.0,30.09,ESE,113,0.0,0.0,61,0.00,,---,0.00,VWS V14.01,2013-05-29 06:42:00,
2013-05-29 02:47:00,62.6,49.0,30.09,ESE,113,0.0,0.0,61,0.00,,---,0.00,VWS V14.01,2013-05-29 06:47:00,
2013-05-29 02:52:00,62.6,49.0,30.09,ESE,113,0.0,0.0,61,0.00,,---,0.00,VWS V14.01,2013-05-29 06:52:00,
2013-05-29 02:57:00,62.8,49.2,30.09,ESE,113,0.0,0.0,61,0.00,,---,0.00,VWS V14.01,2013-05-29 06:57:00,
2013-05-29 03:02:00,62.8,49.2,30.09,ESE,113,0.0,0.0,61,0.00,,---,0.00,VWS V14.01,2013-05-29 07:02:00,
2013-05-29 03:07:00,62.6,49.0,30.09,ESE,113,0.0,0.0,61,0.00,,---,0.00,VWS V14.01,2013-05-29 07:07:00,
2013-05-29 03:12:00,62.4,49.2,30.09,ESE,113,0.0,0.0,62,0.00,,---,0.00,VWS V14.01,2013-05-29 07:12:00,
2013-05-29 03:17:00,62.2,49.1,30.09,ESE,113,0.0,0.0,62,0.00,,---,0.00,VWS V14.01,2013-05-29 07:17:00,
2013-05-29 03:22:00,61.9,48.7,30.09,SSW,212,0.0,0.0,62,0.00,,---,0.00,VWS V14.01,2013-05-29 07:22:00,
2013-05-29 03:27:00,61.5,48.4,30.09,SSW,212,0.0,0.0,62,0.00,,---,0.00,VWS V14.01,2013-05-29 07:27:00,
2013-05-29 03:33:00,61.2,48.0,30.09,SSW,212,0.0,0.0,62,0.00,,---,0.00,VWS V14.01,2013-05-29 07:33:00,
2013-05-29 03:38:00,61.0,48.7,30.09,SSW,212,0.0,0.0,64,0.00,,---,0.00,VWS V14.01,2013-05-29 07:38:00,
2013-05-29 03:43:00,60.8,48.6,30.09,SSW,212,0.0,0.0,64,0.00,,---,0.00,VWS V14.01,2013-05-29 07:43:00,
2013-05-29 03:48:00,60.8,49.4,30.09,SSW,212,0.0,0.0,66,0.00,,---,0.00,VWS V14.01,2013-05-29 07:48:00,
2013-05-29 03:53:00,60.8,49.4,30.09,SSW,212,0.0,0.0,66,0.00,,---,0.00,VWS V14.01,2013-05-29 07:53:00,
2013-05-29 03:58:00,61.0,50.0,30.09,SSW,211,0.0,0.0,67,0.00,,---,0.00,VWS V14.01,2013-05-29 07:58:00,
2013-05-29 04:03:00,61.2,50.1,30.09,SSW,211,0.0,0.0,67,0.00,,---,0.00,VWS V14.01,2013-05-29 08:03:00,
2013-05-29 04:08:00,61.3,50.3,30.09,SSW,211,0.0,0.0,67,0.00,,---,0.00,VWS V14.01,2013-05-29 08:08:00,
2013-05-29 04:13:00,61.3,50.3,30.09,SSW,211,0.0,0.0,67,0.00,,---,0.00,VWS V14.01,2013-05-29 08:13:00,
2013-05-29 04:18:00,61.3,50.3,30.09,SSW,211,0.0,0.0,67,0.00,,---,0.00,VWS V14.01,2013-05-29 08:18:00,
2013-05-29 04:23:00,61.3,50.3,30.09,SSW,211,0.0,0.0,67,0.00,,---,0.00,VWS V14.01,2013-05-29 08:23:00,
2013-05-29 04:28:00,61.5,50.5,30.09,SSW,211,0.0,0.0,67,0.00,,---,0.00,VWS V14.01,2013-05-29 08:28:00,
2013-05-29 04:33:00,61.5,50.5,30.09,SE,125,0.0,0.0,67,0.00,,---,0.00,VWS V14.01,2013-05-29 08:33:00,
2013-05-29 04:38:00,61.7,50.2,30.09,East,83,0.0,0.0,66,0.00,,---,0.00,VWS V14.01,2013-05-29 08:38:00,
2013-05-29 04:43:00,61.7,50.2,30.09,East,83,0.0,0.0,66,0.00,,---,0.00,VWS V14.01,2013-05-29 08:43:00,
2013-05-29 04:48:00,61.7,50.2,30.09,East,83,0.0,0.0,66,0.00,,---,0.00,VWS V14.01,2013-05-29 08:48:00,
2013-05-29 04:53:00,61.5,50.1,30.09,East,83,0.0,0.0,66,0.00,,---,0.00,VWS V14.01,2013-05-29 08:53:00,
2013-05-29 04:58:00,61.3,49.9,30.09,East,83,0.0,0.0,66,0.00,,---,0.00,VWS V14.01,2013-05-29 08:58:00,
2013-05-29 05:03:00,60.8,49.0,30.09,East,83,0.0,0.0,65,0.00,,---,0.00,VWS V14.01,2013-05-29 09:03:00,
2013-05-29 05:08:00,60.4,49.0,30.09,East,83,0.0,0.0,66,0.00,,---,0.00,VWS V14.01,2013-05-29 09:08:00,
2013-05-29 05:13:00,60.4,49.8,30.09,East,83,0.0,0.0,68,0.00,,---,0.00,VWS V14.01,2013-05-29 09:13:00,
2013-05-29 05:18:00,60.4,49.8,30.09,East,83,0.0,0.0,68,0.00,,---,0.00,VWS V14.01,2013-05-29 09:18:00,
2013-05-29 05:23:00,60.3,49.7,30.09,East,83,0.0,0.0,68,0.00,,---,0.00,VWS V14.01,2013-05-29 09:23:00,
2013-05-29 05:28:00,60.3,50.1,30.12,East,83,0.0,0.0,69,0.00,,---,0.00,VWS V14.01,2013-05-29 09:28:00,
2013-05-29 05:33:00,60.4,50.6,30.12,East,83,0.0,0.0,70,0.00,,---,0.00,VWS V14.01,2013-05-29 09:33:00,
2013-05-29 05:38:00,60.6,50.8,30.12,WNW,302,0.0,0.0,70,0.00,,---,0.00,VWS V14.01,2013-05-29 09:38:00,
2013-05-29 05:43:00,60.6,50.8,30.12,WNW,302,0.0,0.0,70,0.00,,---,0.00,VWS V14.01,2013-05-29 09:43:00,
2013-05-29 05:48:00,60.6,50.8,30.12,North,5,0.0,0.0,70,0.00,,---,0.00,VWS V14.01,2013-05-29 09:48:00,
2013-05-29 05:53:00,60.6,50.8,30.12,North,5,0.0,0.0,70,0.00,,---,0.00,VWS V14.01,2013-05-29 09:53:00,
2013-05-29 05:58:00,60.6,50.8,30.12,North,7,0.0,0.0,70,0.00,,---,0.00,VWS V14.01,2013-05-29 09:58:00,
2013-05-29 06:03:00,60.6,50.8,30.12,North,8,0.0,0.0,70,0.00,,---,0.00,VWS V14.01,2013-05-29 10:03:00,
2013-05-29 06:08:00,60.4,50.6,30.12,North,8,0.0,0.0,70,0.00,,---,0.00,VWS V14.01,2013-05-29 10:08:00,
2013-05-29 06:13:00,60.3,50.5,30.12,North,9,0.0,0.0,70,0.00,,---,0.00,VWS V14.01,2013-05-29 10:13:00,
2013-05-29 06:18:00,60.3,50.5,30.12,North,9,0.0,0.0,70,0.00,,---,0.00,VWS V14.01,2013-05-29 10:18:00,
2013-05-29 06:23:00,60.3,50.8,30.12,North,9,0.0,0.0,71,0.00,,---,0.00,VWS V14.01,2013-05-29 10:23:00,
2013-05-29 06:28:00,60.3,50.8,30.12,North,357,0.0,0.0,71,0.00,,---,0.00,VWS V14.01,2013-05-29 10:28:00,
2013-05-29 06:33:00,60.1,50.7,30.12,North,357,0.0,0.0,71,0.00,,---,0.00,VWS V14.01,2013-05-29 10:33:00,
2013-05-29 06:38:00,60.1,50.7,30.12,North,357,0.0,0.0,71,0.00,,---,0.00,VWS V14.01,2013-05-29 10:38:00,
2013-05-29 06:43:00,59.9,50.5,30.12,North,357,0.0,0.0,71,0.00,,---,0.00,VWS V14.01,2013-05-29 10:43:00,
2013-05-29 06:48:00,59.7,50.3,30.12,North,357,0.0,0.0,71,0.00,,---,0.00,VWS V14.01,2013-05-29 10:48:00,
2013-05-29 06:53:00,59.7,50.7,30.12,North,357,0.0,0.0,72,0.00,,---,0.00,VWS V14.01,2013-05-29 10:53:00,
2013-05-29 06:58:00,59.9,51.2,30.12,North,357,0.0,0.0,73,0.00,,---,0.00,VWS V14.01,2013-05-29 10:58:00,
2013-05-29 07:03:00,60.1,51.4,30.12,NNE,29,0.0,0.0,73,0.00,,---,0.00,VWS V14.01,2013-05-29 11:03:00,
2013-05-29 07:08:00,60.3,52.0,30.12,NNE,29,0.0,0.0,74,0.00,,---,0.00,VWS V14.01,2013-05-29 11:08:00,
2013-05-29 07:13:00,60.4,52.1,30.12,NNE,30,0.0,0.0,74,0.00,,---,0.00,VWS V14.01,2013-05-29 11:13:00,
2013-05-29 07:18:00,60.4,52.1,30.12,NNE,30,0.0,0.0,74,0.00,,---,0.00,VWS V14.01,2013-05-29 11:18:00,
2013-05-29 07:23:00,60.4,51.8,30.12,NNE,29,0.0,0.0,73,0.00,,---,0.00,VWS V14.01,2013-05-29 11:23:00,
2013-05-29 07:28:00,60.4,51.8,30.12,NNE,29,0.0,0.0,73,0.00,,---,0.00,VWS V14.01,2013-05-29 11:28:00,
2013-05-29 07:33:00,60.4,51.8,30.12,NNE,29,0.0,0.0,73,0.00,,---,0.00,VWS V14.01,2013-05-29 11:33:00,
2013-05-29 07:38:00,60.4,51.8,30.12,NNE,29,0.0,0.0,73,0.00,,---,0.00,VWS V14.01,2013-05-29 11:38:00,
2013-05-29 07:43:00,60.6,51.9,30.12,NNE,29,0.0,0.0,73,0.00,,---,0.00,VWS V14.01,2013-05-29 11:43:00,
2013-05-29 07:48:00,60.6,52.3,30.12,NNE,29,0.0,0.0,74,0.00,,---,0.00,VWS V14.01,2013-05-29 11:48:00,
2013-05-29 07:53:00,60.6,52.3,30.12,NNE,29,0.0,0.0,74,0.00,,---,0.00,VWS V14.01,2013-05-29 11:53:00,
2013-05-29 07:58:00,60.8,52.1,30.12,NNE,29,0.0,0.0,73,0.00,,---,0.00,VWS V14.01,2013-05-29 11:58:00,
2013-05-29 08:03:00,61.0,52.3,30.12,NNE,29,0.0,0.0,73,0.00,,---,0.00,VWS V14.01,2013-05-29 12:03:00,
2013-05-29 08:08:00,61.0,52.3,30.12,NNE,30,0.0,0.0,73,0.00,,---,0.00,VWS V14.01,2013-05-29 12:08:00,
2013-05-29 08:13:00,61.2,52.5,30.12,NNE,30,0.0,0.0,73,0.00,,---,0.00,VWS V14.01,2013-05-29 12:13:00,
2013-05-29 08:18:00,61.3,52.6,30.12,NNE,30,0.0,0.0,73,0.00,,---,0.00,VWS V14.01,2013-05-29 12:18:00,
2013-05-29 08:23:00,61.7,53.0,30.12,East,85,0.0,0.0,73,0.00,,---,0.00,VWS V14.01,2013-05-29 12:23:00,
2013-05-29 08:28:00,62.1,53.3,30.15,East,85,0.0,0.0,73,0.00,,---,0.00,VWS V14.01,2013-05-29 12:28:00,
2013-05-29 08:33:00,62.4,53.7,30.15,East,85,0.0,0.0,73,0.00,,---,0.00,VWS V14.01,2013-05-29 12:33:00,
2013-05-29 08:39:00,62.6,53.5,30.15,East,85,0.0,0.0,72,0.00,,---,0.00,VWS V14.01,2013-05-29 12:39:00,
2013-05-29 08:44:00,63.1,53.2,30.15,ENE,73,0.0,0.0,70,0.00,,---,0.00,VWS V14.01,2013-05-29 12:44:00,
2013-05-29 08:49:00,63.5,53.2,30.15,NNW,335,0.0,0.0,69,0.00,,---,0.00,VWS V14.01,2013-05-29 12:49:00,
2013-05-29 08:54:00,63.9,53.1,30.15,West,266,0.0,0.0,68,0.00,,---,0.00,VWS V14.01,2013-05-29 12:54:00,
2013-05-29 08:59:00,64.2,53.0,30.15,SW,234,0.0,0.0,67,0.00,,---,0.00,VWS V14.01,2013-05-29 12:59:00,
2013-05-29 09:04:00,64.8,52.7,30.15,SW,225,0.0,0.0,65,0.00,,---,0.00,VWS V14.01,2013-05-29 13:04:00,
2013-05-29 09:09:00,65.1,52.2,30.15,SW,235,0.0,2.2,63,0.00,,---,0.00,VWS V14.01,2013-05-29 13:09:00,
2013-05-29 09:14:00,65.5,51.7,30.15,WSW,247,2.7,2.7,61,0.00,,---,0.00,VWS V14.01,2013-05-29 13:14:00,
2013-05-29 09:19:00,65.8,51.6,30.15,WSW,245,0.0,2.2,60,0.00,,---,0.00,VWS V14.01,2013-05-29 13:19:00,
2013-05-29 09:24:00,66.0,50.4,30.15,ENE,59,3.6,3.6,57,0.00,,---,0.00,VWS V14.01,2013-05-29 13:24:00,
2013-05-29 09:29:00,66.4,50.2,30.15,SSW,213,0.0,0.0,56,0.00,,---,0.00,VWS V14.01,2013-05-29 13:29:00,
2013-05-29 09:34:00,66.6,49.4,30.15,East,97,0.0,0.0,54,0.00,,---,0.00,VWS V14.01,2013-05-29 13:34:00,
2013-05-29 09:39:00,66.7,49.1,30.15,West,266,3.6,3.6,53,0.00,,---,0.00,VWS V14.01,2013-05-29 13:39:00,
2013-05-29 09:44:00,67.5,48.7,30.15,West,266,3.1,3.1,51,0.00,,---,0.00,VWS V14.01,2013-05-29 13:44:00,
2013-05-29 09:49:00,68.2,46.6,30.15,SSW,209,2.7,2.7,46,0.00,,---,0.00,VWS V14.01,2013-05-29 13:49:00,
2013-05-29 09:54:00,68.5,47.0,30.15,WSW,250,2.7,2.7,46,0.00,,---,0.00,VWS V14.01,2013-05-29 13:54:00,
2013-05-29 09:59:00,68.5,47.0,30.15,WSW,251,3.1,3.1,46,0.00,,---,0.00,VWS V14.01,2013-05-29 13:59:00,
2013-05-29 10:04:00,68.9,46.1,30.15,South,188,2.7,2.7,44,0.00,,---,0.00,VWS V14.01,2013-05-29 14:04:00,
2013-05-29 10:09:00,69.3,47.0,30.15,SW,227,0.0,2.7,45,0.00,,---,0.00,VWS V14.01,2013-05-29 14:09:00,
2013-05-29 10:14:00,69.4,46.6,30.15,WSW,251,3.6,5.8,44,0.00,,---,0.00,VWS V14.01,2013-05-29 14:14:00,
2013-05-29 10:19:00,70.0,46.5,30.15,SW,221,2.7,4.0,43,0.00,,---,0.00,VWS V14.01,2013-05-29 14:19:00,
2013-05-29 10:24:00,70.2,47.2,30.15,SE,139,2.7,4.0,44,0.00,,---,0.00,VWS V14.01,2013-05-29 14:24:00,
2013-05-29 10:29:00,70.3,46.8,30.15,WSW,242,2.7,6.3,43,0.00,,---,0.00,VWS V14.01,2013-05-29 14:29:00,
2013-05-29 10:34:00,71.1,45.5,30.15,SW,220,0.0,0.0,40,0.00,,---,0.00,VWS V14.01,2013-05-29 14:34:00,
2013-05-29 10:39:00,71.4,46.5,30.15,WSW,249,5.4,5.4,41,0.00,,---,0.00,VWS V14.01,2013-05-29 14:39:00,
2013-05-29 10:44:00,72.3,44.6,30.15,WSW,253,2.7,5.8,37,0.00,,---,0.00,VWS V14.01,2013-05-29 14:44:00,
2013-05-29 10:49:00,72.9,43.6,30.15,South,187,3.6,5.4,35,0.00,,---,0.00,VWS V14.01,2013-05-29 14:49:00,
2013-05-29 10:54:00,73.2,44.0,30.15,WSW,239,3.6,5.4,35,0.00,,---,0.00,VWS V14.01,2013-05-29 14:54:00,
2013-05-29 10:59:00,73.8,44.4,30.15,SE,142,2.2,2.7,35,0.00,,---,0.00,VWS V14.01,2013-05-29 14:59:00,
2013-05-29 11:04:00,74.3,43.4,30.15,SSW,200,3.6,6.3,33,0.00,,---,0.00,VWS V14.01,2013-05-29 15:04:00,
2013-05-29 11:09:00,74.8,43.0,30.15,WSW,251,4.0,5.8,32,0.00,,---,0.00,VWS V14.01,2013-05-29 15:09:00,
2013-05-29 11:14:00,75.0,44.0,30.15,WSW,255,0.0,3.6,33,0.00,,---,0.00,VWS V14.01,2013-05-29 15:14:00,
2013-05-29 11:19:00,75.7,43.8,30.15,SW,231,8.7,8.7,32,0.00,,---,0.00,VWS V14.01,2013-05-29 15:19:00,
2013-05-29 11:24:00,76.1,44.1,30.15,South,189,5.4,8.3,32,0.00,,---,0.00,VWS V14.01,2013-05-29 15:24:00,
2013-05-29 11:29:00,75.9,43.1,30.15,SSE,149,2.2,2.7,31,0.00,,---,0.00,VWS V14.01,2013-05-29 15:29:00,
2013-05-29 11:34:00,76.1,44.1,30.15,South,178,2.7,3.1,32,0.00,,---,0.00,VWS V14.01,2013-05-29 15:34:00,
2013-05-29 11:39:00,76.1,43.3,30.15,NW,324,0.0,4.0,31,0.00,,---,0.00,VWS V14.01,2013-05-29 15:39:00,
2013-05-29 11:44:00,75.9,43.1,30.15,SW,223,3.6,6.3,31,0.00,,---,0.00,VWS V14.01,2013-05-29 15:44:00,
2013-05-29 11:49:00,75.7,43.0,30.15,SSE,162,2.7,6.3,31,0.00,,---,0.00,VWS V14.01,2013-05-29 15:49:00,
2013-05-29 11:54:00,76.3,43.5,30.15,SSE,162,0.0,0.0,31,0.00,,---,0.00,VWS V14.01,2013-05-29 15:54:00,
2013-05-29 11:59:00,77.0,43.2,30.15,WSW,245,0.0,0.0,30,0.00,,---,0.00,VWS V14.01,2013-05-29 15:59:00,
2013-05-29 12:04:00,77.5,43.7,30.15,SW,233,0.0,0.0,30,0.00,,---,0.00,VWS V14.01,2013-05-29 16:04:00,
2013-05-29 12:10:00,77.5,43.7,30.15,SE,129,0.0,0.0,30,0.00,,---,0.00,VWS V14.01,2013-05-29 16:10:00,
2013-05-29 12:15:00,77.7,43.0,30.15,SSW,209,5.4,5.8,29,0.00,,---,0.00,VWS V14.01,2013-05-29 16:15:00,
2013-05-29 12:20:00,78.1,43.3,30.15,South,190,0.0,3.6,29,0.00,,---,0.00,VWS V14.01,2013-05-29 16:20:00,
2013-05-29 12:25:00,78.6,40.9,30.15,WSW,250,2.2,4.0,26,0.00,,---,0.00,VWS V14.01,2013-05-29 16:25:00,
2013-05-29 12:30:00,79.0,40.2,30.12,South,173,5.8,7.6,25,0.00,,---,0.00,VWS V14.01,2013-05-29 16:30:00,
2013-05-29 12:35:00,79.2,40.3,30.12,SW,235,0.0,3.6,25,0.00,,---,0.00,VWS V14.01,2013-05-29 16:35:00,
2013-05-29 12:40:00,79.7,41.8,30.12,SSE,165,0.0,0.0,26,0.00,,---,0.00,VWS V14.01,2013-05-29 16:40:00,
2013-05-29 12:45:00,80.4,41.4,30.12,SW,233,5.4,5.4,25,0.00,,---,0.00,VWS V14.01,2013-05-29 16:45:00,
2013-05-29 12:50:00,80.2,40.2,30.12,West,262,4.0,5.8,24,0.00,,---,0.00,VWS V14.01,2013-05-29 16:50:00,
2013-05-29 12:55:00,80.4,40.4,30.12,SSE,166,5.8,6.3,24,0.00,,---,0.00,VWS V14.01,2013-05-29 16:55:00,
2013-05-29 13:00:00,80.6,40.5,30.12,SSW,210,3.6,3.6,24,0.00,,---,0.00,VWS V14.01,2013-05-29 17:00:00,
2013-05-29 13:05:00,81.0,40.8,30.12,WSW,250,4.0,4.9,24,0.00,,---,0.00,VWS V14.01,2013-05-29 17:05:00,
2013-05-29 13:10:00,80.8,38.4,30.12,WSW,250,3.1,3.6,22,0.00,,---,0.00,VWS V14.01,2013-05-29 17:10:00,
2013-05-29 13:15:00,80.1,40.1,30.12,SSW,210,0.0,2.7,24,0.00,,---,0.00,VWS V14.01,2013-05-29 17:15:00,
2013-05-29 13:20:00,79.3,38.4,30.12,SSW,213,2.2,2.7,23,0.00,,---,0.00,VWS V14.01,2013-05-29 17:20:00,
2013-05-29 13:25:00,79.0,38.1,30.12,SW,223,2.7,3.6,23,0.00,,---,0.00,VWS V14.01,2013-05-29 17:25:00,
2013-05-29 13:30:00,79.3,39.5,30.12,SSE,166,0.0,0.0,24,0.00,,---,0.00,VWS V14.01,2013-05-29 17:30:00,
2013-05-29 13:35:00,80.2,41.3,30.12,SSE,155,0.0,0.0,25,0.00,,---,0.00,VWS V14.01,2013-05-29 17:35:00,
2013-05-29 13:40:00,80.6,38.3,30.12,SSE,151,0.0,0.0,22,0.00,,---,0.00,VWS V14.01,2013-05-29 17:40:00,
2013-05-29 13:45:00,81.1,41.0,30.09,SSW,203,3.1,3.1,24,0.00,,---,0.00,VWS V14.01,2013-05-29 17:45:00,
2013-05-29 13:50:00,81.3,38.9,30.09,SW,228,4.9,4.9,22,0.00,,---,0.00,VWS V14.01,2013-05-29 17:50:00,
2013-05-29 13:55:00,81.3,38.9,30.09,WSW,253,6.3,6.3,22,0.00,,---,0.00,VWS V14.01,2013-05-29 17:55:00,
2013-05-29 14:00:00,81.1,38.7,30.12,SSW,204,5.8,5.8,22,0.00,,---,0.00,VWS V14.01,2013-05-29 18:00:00,
2013-05-29 14:05:00,81.3,37.7,30.12,SW,226,0.0,0.0,21,0.00,,---,0.00,VWS V14.01,2013-05-29 18:05:00,
2013-05-29 14:10:00,81.7,39.2,30.12,SW,218,2.7,2.7,22,0.00,,---,0.00,VWS V14.01,2013-05-29 18:10:00,
2013-05-29 14:15:00,82.4,39.8,30.12,WNW,286,6.3,6.3,22,0.00,,---,0.00,VWS V14.01,2013-05-29 18:15:00,
2013-05-29 14:20:00,83.1,39.2,30.12,SW,235,6.3,8.1,21,0.00,,---,0.00,VWS V14.01,2013-05-29 18:20:00,
2013-05-29 14:25:00,83.3,38.1,30.12,West,259,8.1,8.1,20,0.00,,---,0.00,VWS V14.01,2013-05-29 18:25:00,
2013-05-29 14:30:00,82.9,37.8,30.12,SSW,206,5.4,5.4,20,0.00,,---,0.00,VWS V14.01,2013-05-29 18:30:00,
2013-05-29 14:40:00,82.9,37.8,30.12,West,265,8.3,8.3,20,0.00,,---,0.00,VWS V14.01,2013-05-29 18:40:00,
2013-05-29 14:45:00,82.6,37.5,30.09,WSW,248,8.1,8.1,20,0.00,,---,0.00,VWS V14.01,2013-05-29 18:45:00,
2013-05-29 14:50:00,82.2,37.2,30.09,West,281,3.6,3.6,20,0.00,,---,0.00,VWS V14.01,2013-05-29 18:50:00,
2013-05-29 14:55:00,82.4,37.3,30.09,SSW,201,3.1,4.0,20,0.00,,---,0.00,VWS V14.01,2013-05-29 18:55:00,
2013-05-29 15:00:00,82.4,37.3,30.09,SW,220,8.3,8.3,20,0.00,,---,0.00,VWS V14.01,2013-05-29 19:00:00,
2013-05-29 15:05:00,82.4,37.3,30.09,NNW,330,2.7,4.0,20,0.00,,---,0.00,VWS V14.01,2013-05-29 19:05:00,
2013-05-29 15:10:00,83.1,39.2,30.09,SE,146,2.7,3.1,21,0.00,,---,0.00,VWS V14.01,2013-05-29 19:10:00,
2013-05-29 15:15:00,83.1,37.9,30.09,SW,222,8.7,8.7,20,0.00,,---,0.00,VWS V14.01,2013-05-29 19:15:00,
2013-05-29 15:20:00,83.1,37.9,30.09,West,265,4.0,4.0,20,0.00,,---,0.00,VWS V14.01,2013-05-29 19:20:00,
2013-05-29 15:25:00,82.9,37.8,30.09,SW,236,4.0,4.0,20,0.00,,---,0.00,VWS V14.01,2013-05-29 19:25:00,
2013-05-29 15:30:00,82.9,37.8,30.09,SSW,197,5.4,5.4,20,0.00,,---,0.00,VWS V14.01,2013-05-29 19:30:00,
2013-05-29 15:35:00,83.3,38.1,30.09,SSW,207,5.8,5.8,20,0.00,,---,0.00,VWS V14.01,2013-05-29 19:35:00,
2013-05-29 15:40:00,83.5,38.2,30.09,WSW,251,4.9,5.8,20,0.00,,---,0.00,VWS V14.01,2013-05-29 19:40:00,
2013-05-29 15:45:00,83.7,38.4,30.09,West,265,5.4,6.3,20,0.00,,---,0.00,VWS V14.01,2013-05-29 19:45:00,
2013-05-29 15:50:00,83.5,38.2,30.09,NNW,343,0.0,0.0,20,0.00,,---,0.00,VWS V14.01,2013-05-29 19:50:00,
2013-05-29 15:55:00,84.0,38.7,30.09,SW,233,6.7,6.7,20,0.00,,---,0.00,VWS V14.01,2013-05-29 19:55:00,
2013-05-29 16:00:00,84.2,37.5,30.09,SW,225,3.1,3.1,19,0.00,,---,0.00,VWS V14.01,2013-05-29 20:00:00,
2013-05-29 16:05:00,84.2,37.5,30.09,SW,236,3.6,3.6,19,0.00,,---,0.00,VWS V14.01,2013-05-29 20:05:00,
2013-05-29 16:10:00,84.2,37.5,30.09,SW,220,0.0,3.6,19,0.00,,---,0.00,VWS V14.01,2013-05-29 20:10:00,
2013-05-29 16:15:00,84.7,38.0,30.06,WSW,238,3.6,8.7,19,0.00,,---,0.00,VWS V14.01,2013-05-29 20:15:00,
2013-05-29 16:20:00,84.7,38.0,30.06,WSW,245,6.3,7.6,19,0.00,,---,0.00,VWS V14.01,2013-05-29 20:20:00,
2013-05-29 16:25:00,84.4,37.7,30.06,WSW,241,4.0,5.4,19,0.00,,---,0.00,VWS V14.01,2013-05-29 20:25:00,
2013-05-29 16:30:00,84.4,37.7,30.06,SW,216,5.4,8.1,19,0.00,,---,0.00,VWS V14.01,2013-05-29 20:30:00,
2013-05-29 16:35:00,83.8,37.2,30.06,WSW,241,8.1,8.1,19,0.00,,---,0.00,VWS V14.01,2013-05-29 20:35:00,
2013-05-29 16:40:00,83.8,37.2,30.06,West,263,2.7,5.4,19,0.00,,---,0.00,VWS V14.01,2013-05-29 20:40:00,
2013-05-29 16:46:00,84.2,37.5,30.06,West,262,0.0,2.7,19,0.00,,---,0.00,VWS V14.01,2013-05-29 20:46:00,
2013-05-29 16:51:00,84.4,37.7,30.06,SSE,166,6.3,7.2,19,0.00,,---,0.00,VWS V14.01,2013-05-29 20:51:00,
2013-05-29 16:56:00,84.6,37.8,30.06,WSW,251,4.0,5.8,19,0.00,,---,0.00,VWS V14.01,2013-05-29 20:56:00,
2013-05-29 17:01:00,84.6,37.8,30.03,SSW,206,8.1,8.1,19,0.00,,---,0.00,VWS V14.01,2013-05-29 21:01:00,
2013-05-29 17:06:00,84.4,37.7,30.03,SW,234,3.1,3.6,19,0.00,,---,0.00,VWS V14.01,2013-05-29 21:06:00,
2013-05-29 17:11:00,84.4,37.7,30.03,SW,232,5.4,7.6,19,0.00,,---,0.00,VWS V14.01,2013-05-29 21:11:00,
2013-05-29 17:16:00,84.2,37.5,30.06,WSW,241,2.7,3.1,19,0.00,,---,0.00,VWS V14.01,2013-05-29 21:16:00,
2013-05-29 17:21:00,84.0,37.4,30.06,WNW,289,2.7,5.8,19,0.00,,---,0.00,VWS V14.01,2013-05-29 21:21:00,
2013-05-29 17:26:00,84.2,37.5,30.06,SW,218,4.0,4.0,19,0.00,,---,0.00,VWS V14.01,2013-05-29 21:26:00,
2013-05-29 17:31:00,83.8,37.2,30.06,West,267,5.4,5.4,19,0.00,,---,0.00,VWS V14.01,2013-05-29 21:31:00,
2013-05-29 17:36:00,83.1,37.9,30.06,SE,131,0.0,0.0,20,0.00,,---,0.00,VWS V14.01,2013-05-29 21:36:00,
2013-05-29 17:41:00,83.3,36.8,30.06,WSW,237,3.6,4.0,19,0.00,,---,0.00,VWS V14.01,2013-05-29 21:41:00,
2013-05-29 17:46:00,83.3,36.8,30.06,SW,235,3.6,4.9,19,0.00,,---,0.00,VWS V14.01,2013-05-29 21:46:00,
2013-05-29 17:51:00,83.5,36.9,30.06,SW,232,3.1,3.1,19,0.00,,---,0.00,VWS V14.01,2013-05-29 21:51:00,
2013-05-29 17:56:00,83.7,37.1,30.06,WSW,241,4.0,5.8,19,0.00,,---,0.00,VWS V14.01,2013-05-29 21:56:00,
2013-05-29 18:01:00,83.5,36.9,30.06,WSW,245,4.0,4.9,19,0.00,,---,0.00,VWS V14.01,2013-05-29 22:01:00,
2013-05-29 18:06:00,83.5,36.9,30.06,SW,233,6.3,6.3,19,0.00,,---,0.00,VWS V14.01,2013-05-29 22:06:00,
2013-05-29 18:11:00,83.5,36.9,30.06,WSW,250,4.9,5.8,19,0.00,,---,0.00,VWS V14.01,2013-05-29 22:11:00,
2013-05-29 18:16:00,83.7,37.1,30.06,ESE,113,2.2,2.7,19,0.00,,---,0.00,VWS V14.01,2013-05-29 22:16:00,
2013-05-29 18:21:00,83.7,38.4,30.06,SSW,194,2.7,2.7,20,0.00,,---,0.00,VWS V14.01,2013-05-29 22:21:00,
2013-05-29 18:26:00,83.7,37.1,30.06,SW,228,2.7,3.1,19,0.00,,---,0.00,VWS V14.01,2013-05-29 22:26:00,
2013-05-29 18:31:00,83.8,37.2,30.06,NW,305,2.2,2.7,19,0.00,,---,0.00,VWS V14.01,2013-05-29 22:31:00,
2013-05-29 18:36:00,83.8,37.2,30.06,WNW,294,4.0,6.3,19,0.00,,---,0.00,VWS V14.01,2013-05-29 22:36:00,
2013-05-29 18:41:00,82.9,36.5,30.06,SW,224,2.2,2.2,19,0.00,,---,0.00,VWS V14.01,2013-05-29 22:41:00,
2013-05-29 18:46:00,82.8,36.3,30.06,West,262,0.0,4.0,19,0.00,,---,0.00,VWS V14.01,2013-05-29 22:46:00,
2013-05-29 18:51:00,82.6,37.5,30.06,NW,304,3.1,4.0,20,0.00,,---,0.00,VWS V14.01,2013-05-29 22:51:00,
2013-05-29 18:56:00,82.2,37.2,30.06,SW,218,2.7,3.6,20,0.00,,---,0.00,VWS V14.01,2013-05-29 22:56:00,
2013-05-29 19:01:00,81.7,36.8,30.06,SSW,199,0.0,3.1,20,0.00,,---,0.00,VWS V14.01,2013-05-29 23:01:00,
2013-05-29 19:07:00,81.0,36.2,30.06,SW,226,0.0,2.2,20,0.00,,---,0.00,VWS V14.01,2013-05-29 23:07:00,
2013-05-29 19:12:00,80.6,35.9,30.06,West,265,3.1,3.1,20,0.00,,---,0.00,VWS V14.01,2013-05-29 23:12:00,
2013-05-29 19:17:00,79.9,36.5,30.06,SW,220,2.2,2.7,21,0.00,,---,0.00,VWS V14.01,2013-05-29 23:17:00,
2013-05-29 19:22:00,79.5,36.2,30.06,WSW,243,0.0,0.0,21,0.00,,---,0.00,VWS V14.01,2013-05-29 23:22:00,
2013-05-29 19:27:00,79.0,35.8,30.06,West,265,0.0,0.0,21,0.00,,---,0.00,VWS V14.01,2013-05-29 23:27:00,
2013-05-29 19:32:00,78.8,36.8,30.06,WNW,287,3.6,3.6,22,0.00,,---,0.00,VWS V14.01,2013-05-29 23:32:00,
2013-05-29 19:37:00,78.6,37.8,30.06,West,267,5.8,5.8,23,0.00,,---,0.00,VWS V14.01,2013-05-29 23:37:00,
2013-05-29 19:42:00,78.4,38.7,30.06,West,274,4.9,4.9,24,0.00,,---,0.00,VWS V14.01,2013-05-29 23:42:00,
2013-05-29 19:47:00,78.1,41.4,30.06,West,273,6.7,6.7,27,0.00,,---,0.00,VWS V14.01,2013-05-29 23:47:00,
2013-05-29 19:52:00,77.7,43.0,30.06,West,266,2.7,3.6,29,0.00,,---,0.00,VWS V14.01,2013-05-29 23:52:00,
2013-05-29 19:57:00,77.2,43.4,30.06,WNW,283,3.6,4.0,30,0.00,,---,0.00,VWS V14.01,2013-05-29 23:57:00,
2013-05-29 20:02:00,76.8,43.9,30.06,WNW,299,3.6,3.6,31,0.00,,---,0.00,VWS V14.01,2013-05-30 00:02:00,
2013-05-29 20:07:00,76.5,44.4,30.06,West,273,3.6,4.5,32,0.00,,---,0.00,VWS V14.01,2013-05-30 00:07:00,
2013-05-29 20:12:00,75.9,44.0,30.06,WNW,283,3.6,4.0,32,0.00,,---,0.00,VWS V14.01,2013-05-30 00:12:00,
2013-05-29 20:17:00,75.7,44.6,30.06,West,270,4.0,4.0,33,0.00,,---,0.00,VWS V14.01,2013-05-30 00:17:00,
2013-05-29 20:22:00,75.2,44.2,30.06,WNW,285,0.0,0.0,33,0.00,,---,0.00,VWS V14.01,2013-05-30 00:22:00,
2013-05-29 20:27:00,74.8,44.6,30.06,WNW,283,2.7,2.7,34,0.00,,---,0.00,VWS V14.01,2013-05-30 00:27:00,
2013-05-29 20:32:00,74.5,45.1,30.06,West,281,2.7,3.1,35,0.00,,---,0.00,VWS V14.01,2013-05-30 00:32:00,
2013-05-29 20:37:00,74.3,44.9,30.06,West,276,2.7,3.1,35,0.00,,---,0.00,VWS V14.01,2013-05-30 00:37:00,
2013-05-29 20:42:00,73.9,45.3,30.06,WNW,294,2.7,2.7,36,0.00,,---,0.00,VWS V14.01,2013-05-30 00:42:00,
2013-05-29 20:47:00,73.8,45.9,30.06,WNW,296,3.6,5.4,37,0.00,,---,0.00,VWS V14.01,2013-05-30 00:47:00,
2013-05-29 20:52:00,73.8,45.9,30.06,NW,306,4.9,4.9,37,0.00,,---,0.00,VWS V14.01,2013-05-30 00:52:00,
2013-05-29 20:57:00,73.6,45.7,30.06,West,269,2.7,3.1,37,0.00,,---,0.00,VWS V14.01,2013-05-30 00:57:00,
2013-05-29 21:02:00,73.4,45.6,30.06,SSE,149,0.0,4.0,37,0.00,,---,0.00,VWS V14.01,2013-05-30 01:02:00,
2013-05-29 21:07:00,73.2,46.1,30.06,West,265,6.3,6.3,38,0.00,,---,0.00,VWS V14.01,2013-05-30 01:07:00,
2013-05-29 21:12:00,73.0,46.0,30.06,WSW,253,4.0,5.8,38,0.00,,---,0.00,VWS V14.01,2013-05-30 01:12:00,
2013-05-29 21:17:00,73.4,45.6,30.06,WSW,249,4.9,8.1,37,0.00,,---,0.00,VWS V14.01,2013-05-30 01:17:00,
2013-05-29 21:22:00,73.2,45.4,30.06,NW,319,3.6,4.0,37,0.00,,---,0.00,VWS V14.01,2013-05-30 01:22:00,
2013-05-29 21:27:00,73.4,45.6,30.09,West,263,6.3,7.2,37,0.00,,---,0.00,VWS V14.01,2013-05-30 01:27:00,
2013-05-29 21:32:00,73.4,44.8,30.09,WNW,283,3.1,6.3,36,0.00,,---,0.00,VWS V14.01,2013-05-30 01:32:00,
2013-05-29 21:37:00,73.4,44.8,30.09,WSW,241,5.4,6.3,36,0.00,,---,0.00,VWS V14.01,2013-05-30 01:37:00,
2013-05-29 21:42:00,73.4,44.1,30.09,WNW,302,2.7,6.3,35,0.00,,---,0.00,VWS V14.01,2013-05-30 01:42:00,
2013-05-29 21:47:00,73.6,44.3,30.09,West,273,3.6,4.0,35,0.00,,---,0.00,VWS V14.01,2013-05-30 01:47:00,
2013-05-29 21:52:00,73.4,44.1,30.09,West,262,2.7,5.4,35,0.00,,---,0.00,VWS V14.01,2013-05-30 01:52:00,
2013-05-29 21:57:00,73.2,44.7,30.09,West,270,5.4,5.4,36,0.00,,---,0.00,VWS V14.01,2013-05-30 01:57:00,
2013-05-29 22:03:00,72.7,44.2,30.09,WSW,258,3.6,3.6,36,0.00,,---,0.00,VWS V14.01,2013-05-30 02:03:00,
2013-05-29 22:08:00,72.1,44.5,30.09,SW,235,0.0,0.0,37,0.00,,---,0.00,VWS V14.01,2013-05-30 02:08:00,
2013-05-29 22:13:00,71.2,45.0,30.09,WSW,245,4.9,5.4,39,0.00,,---,0.00,VWS V14.01,2013-05-30 02:13:00,
2013-05-29 22:18:00,70.9,45.4,30.09,WNW,288,0.0,0.0,40,0.00,,---,0.00,VWS V14.01,2013-05-30 02:18:00,
2013-05-29 22:23:00,70.9,46.0,30.09,WNW,303,0.0,3.1,41,0.00,,---,0.00,VWS V14.01,2013-05-30 02:23:00,
2013-05-29 22:28:00,70.5,45.7,30.09,SW,220,2.2,5.4,41,0.00,,---,0.00,VWS V14.01,2013-05-30 02:28:00,
2013-05-29 22:33:00,70.5,46.3,30.09,West,271,4.0,5.8,42,0.00,,---,0.00,VWS V14.01,2013-05-30 02:33:00,
2013-05-29 22:38:00,70.9,46.0,30.09,West,272,2.7,5.4,41,0.00,,---,0.00,VWS V14.01,2013-05-30 02:38:00,
2013-05-29 22:43:00,71.6,45.4,30.09,West,278,6.3,7.6,39,0.00,,---,0.00,VWS V14.01,2013-05-30 02:43:00,
2013-05-29 22:48:00,72.1,45.2,30.09,West,273,5.8,5.8,38,0.00,,---,0.00,VWS V14.01,2013-05-30 02:48:00,
2013-05-29 22:53:00,72.7,44.9,30.09,NE,42,4.0,4.0,37,0.00,,---,0.00,VWS V14.01,2013-05-30 02:53:00,
2013-05-29 22:58:00,72.9,45.1,30.09,WSW,249,3.6,4.0,37,0.00,,---,0.00,VWS V14.01,2013-05-30 02:58:00,
2013-05-29 23:03:00,72.7,44.9,30.09,West,261,5.4,6.7,37,0.00,,---,0.00,VWS V14.01,2013-05-30 03:03:00,
2013-05-29 23:08:00,72.7,44.9,30.09,West,280,6.3,8.7,37,0.00,,---,0.00,VWS V14.01,2013-05-30 03:08:00,
2013-05-29 23:13:00,72.7,44.2,30.09,West,271,5.4,5.4,36,0.00,,---,0.00,VWS V14.01,2013-05-30 03:13:00,
2013-05-29 23:18:00,72.5,44.8,30.09,West,272,8.1,8.1,37,0.00,,---,0.00,VWS V14.01,2013-05-30 03:18:00,
2013-05-29 23:23:00,72.5,44.8,30.09,SSE,157,0.0,2.7,37,0.00,,---,0.00,VWS V14.01,2013-05-30 03:23:00,
2013-05-29 23:28:00,72.3,44.6,30.09,West,272,4.0,6.3,37,0.00,,---,0.00,VWS V14.01,2013-05-30 03:28:00,
2013-05-29 23:33:00,72.3,44.6,30.09,West,261,4.0,4.0,37,0.00,,---,0.00,VWS V14.01,2013-05-30 03:33:00,
2013-05-29 23:38:00,72.1,44.5,30.09,West,270,3.1,3.1,37,0.00,,---,0.00,VWS V14.01,2013-05-30 03:38:00,
2013-05-29 23:43:00,72.1,44.5,30.09,WNW,296,2.2,2.2,37,0.00,,---,0.00,VWS V14.01,2013-05-30 03:43:00,
2013-05-29 23:48:00,71.8,44.1,30.09,West,262,0.0,2.7,37,0.00,,---,0.00,VWS V14.01,2013-05-30 03:48:00,
2013-05-29 23:53:00,71.6,44.7,30.09,West,273,2.7,2.7,38,0.00,,---,0.00,VWS V14.01,2013-05-30 03:53:00,
2013-05-29 23:58:00,71.2,45.0,30.09,SSW,211,0.0,0.0,39,0.00,,---,0.00,VWS V14.01,2013-05-30 03:58:00,